createdAt,value
2018-01-21T00:00:26.207Z,100285.66
2018-01-21T00:01:30.469Z,100288.63
2018-01-21T00:02:34.715Z,100291.98
2018-01-21T00:03:38.943Z,100296.21
2018-01-21T00:04:43.152Z,100293.27
2018-01-21T00:05:47.383Z,100289.07
2018-01-21T00:06:51.597Z,100292.44
2018-01-21T00:07:55.961Z,100290.75
2018-01-21T00:09:00.237Z,100294.08
2018-01-21T00:10:04.466Z,100299.15
2018-01-21T00:11:09.425Z,100298.77
2018-01-21T00:12:13.621Z,100297.49
2018-01-21T00:13:17.826Z,100300.05
2018-01-21T00:14:22.128Z,100307.64
2018-01-21T00:15:26.344Z,100308.47
2018-01-21T00:16:30.569Z,100299.19
2018-01-21T00:17:34.863Z,100305.92
2018-01-21T00:18:39.052Z,100307.20
2018-01-21T00:19:43.290Z,100311.40
2018-01-21T00:20:47.488Z,100314.77
2018-01-21T00:21:52.422Z,100316.45
2018-01-21T00:22:57.364Z,100313.95
2018-01-21T00:24:01.572Z,100318.99
2018-01-21T00:25:05.825Z,100321.95
2018-01-21T00:26:10.039Z,100316.89
2018-01-21T00:27:14.222Z,100318.16
2018-01-21T00:28:18.400Z,100322.38
2018-01-21T00:29:23.538Z,100320.30
2018-01-21T00:30:27.795Z,100328.72
2018-01-21T00:31:32.019Z,100330.40
2018-01-21T00:32:36.254Z,100329.97
2018-01-21T00:33:40.474Z,100331.27
2018-01-21T00:34:45.464Z,100336.30
2018-01-21T00:35:49.798Z,100337.98
2018-01-21T00:36:54.138Z,100345.15
2018-01-21T00:37:58.369Z,100345.98
2018-01-21T00:39:02.608Z,100345.99
2018-01-21T00:40:06.976Z,100351.05
2018-01-21T00:41:11.297Z,100346.83
2018-01-21T00:42:15.505Z,100348.95
2018-01-21T00:43:19.695Z,100355.28
2018-01-21T00:44:23.901Z,100351.52
2018-01-21T00:45:28.884Z,100356.14
2018-01-21T00:46:33.091Z,100352.77
2018-01-21T00:47:37.334Z,100351.06
2018-01-21T00:48:41.578Z,100351.08
2018-01-21T00:49:46.618Z,100356.14
2018-01-21T00:50:50.834Z,100353.18
2018-01-21T00:51:55.060Z,100357.40
2018-01-21T00:52:59.349Z,100356.55
2018-01-21T00:54:03.540Z,100361.63
2018-01-21T00:55:08.478Z,100359.08
2018-01-21T00:56:12.671Z,100361.60
2018-01-21T00:57:16.884Z,100365.84
2018-01-21T00:58:21.884Z,100376.80
2018-01-21T00:59:26.075Z,100378.08
2018-01-21T01:00:30.267Z,100375.53
2018-01-21T01:01:34.485Z,100375.13
2018-01-21T01:02:38.686Z,100378.48
2018-01-21T01:03:42.926Z,100376.80
2018-01-21T01:04:47.153Z,100378.06
2018-01-21T01:05:51.349Z,100385.66
2018-01-21T01:06:55.633Z,100385.63
2018-01-21T01:07:59.850Z,100386.48
2018-01-21T01:09:04.153Z,100389.87
2018-01-21T01:10:08.363Z,100391.10
2018-01-21T01:11:12.544Z,100395.73
2018-01-21T01:12:17.486Z,100396.58
2018-01-21T01:13:22.477Z,100394.45
2018-01-21T01:14:27.073Z,100394.88
2018-01-21T01:15:31.361Z,100397.41
2018-01-21T01:16:35.547Z,100397.79
2018-01-21T01:17:40.499Z,100402.42
2018-01-21T01:18:44.685Z,100399.48
2018-01-21T01:19:49.718Z,100389.78
2018-01-21T01:20:54.721Z,100394.44
2018-01-21T01:21:58.907Z,100387.70
2018-01-21T01:23:03.107Z,100395.70
2018-01-21T01:24:07.298Z,100401.58
2018-01-21T01:25:11.608Z,100403.28
2018-01-21T01:26:15.930Z,100411.69
2018-01-21T01:27:20.197Z,100413.37
2018-01-21T01:28:24.422Z,100412.11
2018-01-21T01:29:29.388Z,100415.06
2018-01-21T01:30:33.630Z,100414.19
2018-01-21T01:31:37.895Z,100419.26
2018-01-21T01:32:42.182Z,100420.50
2018-01-21T01:33:47.132Z,100420.89
2018-01-21T01:34:52.109Z,100425.49
2018-01-21T01:35:56.382Z,100424.64
2018-01-21T01:37:00.593Z,100428.02
2018-01-21T01:38:04.826Z,100426.30
2018-01-21T01:39:09.058Z,100429.69
2018-01-21T01:40:13.235Z,100435.18
2018-01-21T01:41:17.448Z,100436.41
2018-01-21T01:42:21.684Z,100436.00
2018-01-21T01:43:26.066Z,100438.95
2018-01-21T01:44:30.289Z,100448.99
2018-01-21T01:45:34.480Z,100436.79
2018-01-21T01:46:38.698Z,100449.83
2018-01-21T01:47:42.977Z,100454.89
2018-01-21T01:48:55.892Z,100459.08
2018-01-21T01:50:00.873Z,100459.48
2018-01-21T01:51:05.047Z,100466.63
2018-01-21T01:52:10.026Z,100469.58
2018-01-21T01:53:14.305Z,100473.36
2018-01-21T01:54:18.527Z,100472.92
2018-01-21T01:55:22.745Z,100477.58
2018-01-21T01:56:26.923Z,100480.48
2018-01-21T01:57:31.143Z,100484.27
2018-01-21T01:58:35.380Z,100490.61
2018-01-21T01:59:39.564Z,100491.47
2018-01-21T02:00:43.879Z,100488.95
2018-01-21T02:01:48.441Z,100492.31
2018-01-21T02:02:52.663Z,100489.38
2018-01-21T02:03:56.937Z,100495.70
2018-01-21T02:05:01.201Z,100497.05
2018-01-21T02:06:06.190Z,100503.79
2018-01-21T02:07:10.374Z,100498.76
2018-01-21T02:08:14.576Z,100497.06
2018-01-21T02:09:19.167Z,100495.81
2018-01-21T02:10:24.199Z,100496.25
2018-01-21T02:11:29.151Z,100497.94
2018-01-21T02:12:33.364Z,100495.81
2018-01-21T02:13:37.568Z,100495.34
2018-01-21T02:14:41.795Z,100499.13
2018-01-21T02:15:46.013Z,100510.11
2018-01-21T02:16:50.190Z,100502.14
2018-01-21T02:17:55.160Z,100504.28
2018-01-21T02:18:59.373Z,100510.16
2018-01-21T02:20:03.672Z,100514.78
2018-01-21T02:21:07.922Z,100513.52
2018-01-21T02:22:12.243Z,100510.11
2018-01-21T02:23:17.964Z,100509.65
2018-01-21T02:24:22.183Z,100506.70
2018-01-21T02:25:26.453Z,100513.00
2018-01-21T02:26:30.623Z,100512.53
2018-01-21T02:27:34.827Z,100511.70
2018-01-21T02:28:39.045Z,100515.52
2018-01-21T02:29:43.277Z,100525.58
2018-01-21T02:30:48.309Z,100514.66
2018-01-21T02:31:53.300Z,100518.91
2018-01-21T02:32:57.512Z,100531.13
2018-01-21T02:34:01.729Z,100528.53
2018-01-21T02:35:05.906Z,100532.31
2018-01-21T02:36:10.137Z,100537.84
2018-01-21T02:37:14.350Z,100527.69
2018-01-21T02:38:18.531Z,100534.45
2018-01-21T02:39:22.752Z,100539.93
2018-01-21T02:40:26.959Z,100534.86
2018-01-21T02:41:31.216Z,100534.46
2018-01-21T02:42:35.433Z,100539.05
2018-01-21T02:43:40.413Z,100539.43
2018-01-21T02:44:44.599Z,100541.14
2018-01-21T02:45:48.855Z,100546.13
2018-01-21T02:46:53.164Z,100546.97
2018-01-21T02:47:57.347Z,100542.72
2018-01-21T02:49:01.553Z,100541.39
2018-01-21T02:50:05.736Z,100547.25
2018-01-21T02:51:10.689Z,100547.66
2018-01-21T02:52:14.908Z,100551.84
2018-01-21T02:53:19.222Z,100555.64
2018-01-21T02:54:23.409Z,100556.42
2018-01-21T02:55:28.385Z,100561.08
2018-01-21T02:56:32.610Z,100564.45
2018-01-21T02:57:37.628Z,100566.99
2018-01-21T02:58:42.567Z,100564.45
2018-01-21T02:59:46.773Z,100569.92
2018-01-21T03:00:51.017Z,100572.84
2018-01-21T03:01:56.043Z,100569.13
2018-01-21T03:03:01.069Z,100573.75
2018-01-21T03:04:06.123Z,100575.02
2018-01-21T03:05:10.337Z,100579.23
2018-01-21T03:06:14.515Z,100580.55
2018-01-21T03:07:18.767Z,100577.56
2018-01-21T03:08:23.384Z,100581.34
2018-01-21T03:09:27.554Z,100588.14
2018-01-21T03:10:31.812Z,100591.13
2018-01-21T03:11:36.113Z,100587.81
2018-01-21T03:12:40.302Z,100590.39
2018-01-21T03:13:45.330Z,100587.83
2018-01-21T03:14:50.284Z,100586.58
2018-01-21T03:15:54.516Z,100591.67
2018-01-21T03:16:58.737Z,100592.47
2018-01-21T03:18:02.948Z,100593.74
2018-01-21T03:19:07.190Z,100596.30
2018-01-21T03:20:11.418Z,100590.41
2018-01-21T03:21:16.418Z,100597.16
2018-01-21T03:22:20.632Z,100597.18
2018-01-21T03:23:24.915Z,100600.17
2018-01-21T03:24:29.500Z,100601.88
2018-01-21T03:25:34.434Z,100603.08
2018-01-21T03:26:38.652Z,100602.68
2018-01-21T03:27:42.870Z,100605.60
2018-01-21T03:28:47.089Z,100611.92
2018-01-21T03:29:51.314Z,100609.84
2018-01-21T03:30:55.546Z,100619.95
2018-01-21T03:31:59.736Z,100618.30
2018-01-21T03:33:03.954Z,100622.08
2018-01-21T03:34:08.141Z,100624.60
2018-01-21T03:35:12.380Z,100624.69
2018-01-21T03:36:16.595Z,100629.72
2018-01-21T03:37:20.813Z,100631.82
2018-01-21T03:38:25.007Z,100634.36
2018-01-21T03:39:29.221Z,100644.50
2018-01-21T03:40:33.441Z,100640.24
2018-01-21T03:41:37.696Z,100642.28
2018-01-21T03:42:42.245Z,100647.41
2018-01-21T03:43:46.464Z,100647.39
2018-01-21T03:44:50.630Z,100650.80
2018-01-21T03:45:54.861Z,100649.48
2018-01-21T03:46:59.083Z,100647.80
2018-01-21T03:48:03.320Z,100651.59
2018-01-21T03:49:07.504Z,100655.00
2018-01-21T03:50:11.732Z,100656.66
2018-01-21T03:51:15.948Z,100649.11
2018-01-21T03:52:20.135Z,100654.50
2018-01-21T03:53:24.723Z,100657.36
2018-01-21T03:54:29.724Z,100656.55
2018-01-21T03:55:33.895Z,100658.28
2018-01-21T03:56:38.077Z,100656.98
2018-01-21T03:57:42.291Z,100662.88
2018-01-21T03:58:46.832Z,100667.92
2018-01-21T03:59:51.087Z,100666.26
2018-01-21T04:00:55.343Z,100672.09
2018-01-21T04:01:59.515Z,100665.77
2018-01-21T04:03:03.729Z,100673.38
2018-01-21T04:04:08.754Z,100668.72
2018-01-21T04:05:13.735Z,100676.30
2018-01-21T04:06:18.005Z,100675.84
2018-01-21T04:07:22.987Z,100677.87
2018-01-21T04:08:27.220Z,100688.45
2018-01-21T04:09:31.892Z,100679.16
2018-01-21T04:10:36.085Z,100676.98
2018-01-21T04:11:41.107Z,100679.49
2018-01-21T04:12:46.055Z,100680.73
2018-01-21T04:13:50.222Z,100679.80
2018-01-21T04:14:54.489Z,100686.97
2018-01-21T04:15:58.672Z,100681.93
2018-01-21T04:17:03.724Z,100683.99
2018-01-21T04:18:07.916Z,100690.31
2018-01-21T04:19:12.888Z,100689.05
2018-01-21T04:20:17.172Z,100687.36
2018-01-21T04:21:21.366Z,100691.60
2018-01-21T04:22:26.341Z,100703.05
2018-01-21T04:23:30.640Z,100705.98
2018-01-21T04:24:34.857Z,100707.30
2018-01-21T04:25:39.131Z,100708.97
2018-01-21T04:26:43.351Z,100706.44
2018-01-21T04:27:47.518Z,100710.66
2018-01-21T04:28:51.790Z,100713.16
2018-01-21T04:29:56.040Z,100713.16
2018-01-21T04:31:00.214Z,100714.08
2018-01-21T04:32:04.487Z,100722.53
2018-01-21T04:33:09.474Z,100719.61
2018-01-21T04:34:13.791Z,100723.03
2018-01-21T04:35:18.739Z,100720.48
2018-01-21T04:36:22.921Z,100722.13
2018-01-21T04:37:27.206Z,100722.53
2018-01-21T04:38:31.438Z,100729.30
2018-01-21T04:39:35.672Z,100724.23
2018-01-21T04:40:39.851Z,100726.27
2018-01-21T04:41:44.061Z,100728.35
2018-01-21T04:42:48.281Z,100732.59
2018-01-21T04:43:52.463Z,100737.65
2018-01-21T04:44:56.686Z,100737.63
2018-01-21T04:46:00.972Z,100748.09
2018-01-21T04:47:05.961Z,100746.84
2018-01-21T04:48:10.142Z,100757.28
2018-01-21T04:49:14.319Z,100743.78
2018-01-21T04:50:19.324Z,100751.73
2018-01-21T04:51:23.504Z,100753.00
2018-01-21T04:52:27.725Z,100750.02
2018-01-21T04:53:31.997Z,100753.77
2018-01-21T04:54:36.219Z,100755.89
2018-01-21T04:55:40.432Z,100765.16
2018-01-21T04:56:44.674Z,100758.81
2018-01-21T04:57:49.040Z,100768.41
2018-01-21T04:58:53.225Z,100765.41
2018-01-21T04:59:57.395Z,100771.82
2018-01-21T05:01:01.623Z,100772.25
2018-01-21T05:02:05.846Z,100773.09
2018-01-21T05:03:10.036Z,100776.48
2018-01-21T05:04:14.203Z,100782.02
2018-01-21T05:05:18.378Z,100786.67
2018-01-21T05:06:23.008Z,100778.30
2018-01-21T05:07:27.994Z,100780.02
2018-01-21T05:08:32.225Z,100784.17
2018-01-21T05:09:36.416Z,100786.29
2018-01-21T05:10:40.621Z,100784.68
2018-01-21T05:11:44.892Z,100786.38
2018-01-21T05:12:49.831Z,100791.81
2018-01-21T05:13:54.008Z,100786.83
2018-01-21T05:14:58.196Z,100794.77
2018-01-21T05:16:02.404Z,100787.25
2018-01-21T05:17:06.679Z,100790.60
2018-01-21T05:18:10.851Z,100793.63
2018-01-21T05:19:15.031Z,100793.22
2018-01-21T05:20:19.249Z,100789.35
2018-01-21T05:21:23.468Z,100790.58
2018-01-21T05:22:27.721Z,100795.23
2018-01-21T05:23:32.660Z,100802.03
2018-01-21T05:24:36.912Z,100802.09
2018-01-21T05:25:41.155Z,100800.84
2018-01-21T05:26:46.146Z,100807.59
2018-01-21T05:27:50.394Z,100807.09
2018-01-21T05:28:54.647Z,100814.23
2018-01-21T05:29:58.827Z,100805.84
2018-01-21T05:31:04.214Z,100811.35
2018-01-21T05:32:08.420Z,100807.19
2018-01-21T05:33:12.629Z,100808.52
2018-01-21T05:34:16.806Z,100807.19
2018-01-21T05:35:21.033Z,100810.63
2018-01-21T05:36:25.236Z,100811.05
2018-01-21T05:37:29.539Z,100813.13
2018-01-21T05:38:34.519Z,100816.52
2018-01-21T05:39:38.699Z,100811.79
2018-01-21T05:40:42.981Z,100814.45
2018-01-21T05:41:47.932Z,100813.98
2018-01-21T05:42:52.244Z,100808.89
2018-01-21T05:43:56.424Z,100810.11
2018-01-21T05:45:00.613Z,100808.41
2018-01-21T05:46:04.793Z,100816.36
2018-01-21T05:47:09.009Z,100818.11
2018-01-21T05:48:13.568Z,100818.88
2018-01-21T05:49:17.824Z,100819.28
2018-01-21T05:50:22.128Z,100818.49
2018-01-21T05:51:26.328Z,100821.03
2018-01-21T05:52:31.259Z,100823.95
2018-01-21T05:53:35.766Z,100823.55
2018-01-21T05:54:40.757Z,100821.48
2018-01-21T05:55:44.942Z,100826.14
2018-01-21T05:56:49.158Z,100824.06
2018-01-21T05:57:53.326Z,100821.14
2018-01-21T05:58:58.684Z,100824.91
2018-01-21T06:00:02.978Z,100823.61
2018-01-21T06:01:07.911Z,100826.18
2018-01-21T06:02:12.189Z,100826.19
2018-01-21T06:03:16.359Z,100826.53
2018-01-21T06:04:20.582Z,100837.03
2018-01-21T06:05:24.806Z,100841.66
2018-01-21T06:06:29.051Z,100830.73
2018-01-21T06:07:34.064Z,100844.91
2018-01-21T06:08:38.283Z,100847.41
2018-01-21T06:09:42.506Z,100850.42
2018-01-21T06:10:47.513Z,100854.14
2018-01-21T06:11:51.741Z,100864.22
2018-01-21T06:12:55.945Z,100869.76
2018-01-21T06:14:00.952Z,100862.58
2018-01-21T06:15:05.213Z,100869.78
2018-01-21T06:16:09.391Z,100873.53
2018-01-21T06:17:13.593Z,100872.62
2018-01-21T06:18:17.787Z,100875.11
2018-01-21T06:19:22.063Z,100878.11
2018-01-21T06:20:26.265Z,100883.13
2018-01-21T06:21:30.591Z,100878.86
2018-01-21T06:22:34.810Z,100885.09
2018-01-21T06:23:39.114Z,100884.73
2018-01-21T06:24:43.375Z,100887.25
2018-01-21T06:25:47.588Z,100885.48
2018-01-21T06:26:51.793Z,100890.95
2018-01-21T06:27:56.009Z,100899.44
2018-01-21T06:29:00.222Z,100902.75
2018-01-21T06:30:04.419Z,100901.96
2018-01-21T06:31:08.586Z,100896.89
2018-01-21T06:32:12.804Z,100907.02
2018-01-21T06:33:17.014Z,100900.72
2018-01-21T06:34:21.253Z,100904.91
2018-01-21T06:35:25.434Z,100905.39
2018-01-21T06:36:29.650Z,100905.44
2018-01-21T06:37:34.226Z,100914.19
2018-01-21T06:38:39.205Z,100908.25
2018-01-21T06:39:43.418Z,100916.64
2018-01-21T06:40:47.591Z,100912.83
2018-01-21T06:41:52.540Z,100917.92
2018-01-21T06:42:56.805Z,100920.38
2018-01-21T06:44:01.038Z,100922.05
2018-01-21T06:45:06.016Z,100925.47
2018-01-21T06:46:10.237Z,100930.10
2018-01-21T06:47:14.424Z,100932.94
2018-01-21T06:48:18.643Z,100930.45
2018-01-21T06:49:22.854Z,100930.52
2018-01-21T06:50:27.147Z,100935.92
2018-01-21T06:51:31.381Z,100938.40
2018-01-21T06:52:35.653Z,100940.47
2018-01-21T06:53:40.647Z,100940.47
2018-01-21T06:54:44.828Z,100939.17
2018-01-21T06:55:49.037Z,100944.17
2018-01-21T06:56:53.250Z,100944.91
2018-01-21T06:57:57.645Z,100944.41
2018-01-21T06:59:01.863Z,100945.63
2018-01-21T07:00:06.094Z,100944.80
2018-01-21T07:01:10.310Z,100946.55
2018-01-21T07:02:14.533Z,100950.81
2018-01-21T07:03:18.711Z,100959.67
2018-01-21T07:04:22.947Z,100954.67
2018-01-21T07:05:27.166Z,100956.77
2018-01-21T07:06:31.386Z,100955.41
2018-01-21T07:07:35.597Z,100962.16
2018-01-21T07:08:39.866Z,100968.11
2018-01-21T07:09:44.061Z,100965.97
2018-01-21T07:10:48.235Z,100970.19
2018-01-21T07:11:52.573Z,100974.37
2018-01-21T07:12:57.548Z,100978.12
2018-01-21T07:14:01.772Z,100976.48
2018-01-21T07:15:05.985Z,100983.59
2018-01-21T07:16:10.156Z,100987.00
2018-01-21T07:17:14.460Z,100989.96
2018-01-21T07:18:18.880Z,100986.59
2018-01-21T07:19:23.145Z,100989.47
2018-01-21T07:20:27.332Z,100992.82
2018-01-21T07:21:31.527Z,100991.91
2018-01-21T07:22:35.729Z,100996.44
2018-01-21T07:23:39.941Z,100998.14
2018-01-21T07:24:44.202Z,100996.48
2018-01-21T07:25:48.389Z,101007.00
2018-01-21T07:26:52.593Z,101010.02
2018-01-21T07:27:56.819Z,101006.79
2018-01-21T07:29:01.005Z,101013.44
2018-01-21T07:30:05.281Z,101014.75
2018-01-21T07:31:09.462Z,101020.66
2018-01-21T07:32:13.820Z,101021.52
2018-01-21T07:33:18.038Z,101024.91
2018-01-21T07:34:22.297Z,101033.31
2018-01-21T07:35:26.492Z,101032.84
2018-01-21T07:36:30.677Z,101043.87
2018-01-21T07:37:34.885Z,101044.30
2018-01-21T07:38:39.088Z,101045.44
2018-01-21T07:39:43.297Z,101042.00
2018-01-21T07:40:47.532Z,101046.11
2018-01-21T07:41:51.703Z,101039.41
2018-01-21T07:42:56.686Z,101044.91
2018-01-21T07:44:00.864Z,101046.13
2018-01-21T07:45:05.168Z,101048.71
2018-01-21T07:46:09.581Z,101050.84
2018-01-21T07:47:13.835Z,101051.30
2018-01-21T07:48:19.532Z,101054.31
2018-01-21T07:49:23.705Z,101061.06
2018-01-21T07:50:27.967Z,101065.67
2018-01-21T07:51:32.601Z,101063.12
2018-01-21T07:52:36.780Z,101059.34
2018-01-21T07:53:41.082Z,101067.34
2018-01-21T07:54:46.037Z,101067.75
2018-01-21T07:55:50.241Z,101066.55
2018-01-21T07:56:54.483Z,101077.52
2018-01-21T07:57:58.663Z,101072.41
2018-01-21T07:59:02.876Z,101069.45
2018-01-21T08:00:07.056Z,101071.53
2018-01-21T08:01:11.987Z,101069.41
2018-01-21T08:02:16.980Z,101077.47
2018-01-21T08:03:21.157Z,101080.07
2018-01-21T08:04:25.369Z,101084.30
2018-01-21T08:05:29.585Z,101088.95
2018-01-21T08:06:33.760Z,101093.67
2018-01-21T08:07:38.969Z,101100.91
2018-01-21T08:08:43.288Z,101098.42
2018-01-21T08:09:47.560Z,101110.64
2018-01-21T08:10:51.757Z,101111.89
2018-01-21T08:11:55.938Z,101105.54
2018-01-21T08:13:00.926Z,101111.34
2018-01-21T08:14:05.203Z,101115.98
2018-01-21T08:15:09.437Z,101114.28
2018-01-21T08:16:13.606Z,101116.81
2018-01-21T08:17:18.589Z,101114.31
2018-01-21T08:18:22.768Z,101110.58
2018-01-21T08:19:27.065Z,101110.56
2018-01-21T08:20:32.092Z,101119.45
2018-01-21T08:21:36.305Z,101119.84
2018-01-21T08:22:40.487Z,101127.02
2018-01-21T08:23:44.689Z,101130.87
2018-01-21T08:24:48.924Z,101137.19
2018-01-21T08:25:53.963Z,101137.59
2018-01-21T08:26:58.139Z,101133.02
2018-01-21T08:28:02.336Z,101137.78
2018-01-21T08:29:06.516Z,101133.29
2018-01-21T08:30:11.129Z,101131.24
2018-01-21T08:31:15.334Z,101132.53
2018-01-21T08:32:19.537Z,101133.93
2018-01-21T08:33:23.719Z,101139.92
2018-01-21T08:34:33.570Z,101141.23
2018-01-21T08:35:44.201Z,101141.67
2018-01-21T08:36:53.981Z,101140.84
2018-01-21T08:38:04.524Z,101144.56
2018-01-21T08:39:14.343Z,101145.77
2018-01-21T08:40:23.988Z,101144.11
2018-01-21T08:41:31.846Z,101148.81
2018-01-21T08:42:37.435Z,101154.60
2018-01-21T08:43:41.643Z,101155.95
2018-01-21T08:44:45.853Z,101153.98
2018-01-21T08:45:50.069Z,101158.66
2018-01-21T08:46:54.333Z,101158.31
2018-01-21T08:47:58.515Z,101163.88
2018-01-21T08:49:03.573Z,101168.55
2018-01-21T08:50:07.743Z,101168.91
2018-01-21T08:51:11.941Z,101167.17
2018-01-21T08:52:16.142Z,101161.22
2018-01-21T08:53:20.536Z,101164.21
2018-01-21T08:54:24.716Z,101165.48
2018-01-21T08:55:29.659Z,101167.22
2018-01-21T08:56:33.893Z,101171.12
2018-01-21T08:57:38.069Z,101169.92
2018-01-21T08:58:42.386Z,101171.20
2018-01-21T08:59:46.577Z,101175.02
2018-01-21T09:00:51.512Z,101172.02
2018-01-21T09:01:56.456Z,101172.53
2018-01-21T09:03:00.670Z,101172.94
2018-01-21T09:04:05.437Z,101181.38
2018-01-21T09:05:09.740Z,101185.63
2018-01-21T09:06:13.985Z,101176.84
2018-01-21T09:07:18.961Z,101188.17
2018-01-21T09:08:23.177Z,101194.95
2018-01-21T09:09:27.448Z,101195.41
2018-01-21T09:10:31.705Z,101198.35
2018-01-21T09:11:35.871Z,101199.96
2018-01-21T09:12:40.917Z,101195.30
2018-01-21T09:13:45.129Z,101196.59
2018-01-21T09:14:49.528Z,101197.45
2018-01-21T09:15:53.858Z,101201.21
2018-01-21T09:16:58.077Z,101200.35
2018-01-21T09:18:02.273Z,101201.52
2018-01-21T09:19:06.495Z,101191.27
2018-01-21T09:20:10.761Z,101199.27
2018-01-21T09:21:14.935Z,101198.39
2018-01-21T09:22:19.113Z,101199.75
2018-01-21T09:23:23.328Z,101212.34
2018-01-21T09:24:27.542Z,101202.35
2018-01-21T09:25:31.763Z,101204.44
2018-01-21T09:26:35.945Z,101205.25
2018-01-21T09:27:40.914Z,101198.18
2018-01-21T09:28:45.145Z,101203.26
2018-01-21T09:29:50.840Z,101208.34
2018-01-21T09:30:55.405Z,101205.45
2018-01-21T09:31:59.579Z,101210.16
2018-01-21T09:33:03.891Z,101206.03
2018-01-21T09:34:08.089Z,101206.07
2018-01-21T09:35:13.061Z,101208.70
2018-01-21T09:36:17.312Z,101216.30
2018-01-21T09:37:22.285Z,101216.73
2018-01-21T09:38:26.477Z,101221.42
2018-01-21T09:39:30.681Z,101219.45
2018-01-21T09:40:34.889Z,101233.45
2018-01-21T09:41:39.129Z,101229.28
2018-01-21T09:42:43.346Z,101233.58
2018-01-21T09:43:47.570Z,101235.81
2018-01-21T09:44:52.153Z,101232.98
2018-01-21T09:45:56.336Z,101240.22
2018-01-21T09:47:01.317Z,101238.59
2018-01-21T09:48:05.520Z,101247.91
2018-01-21T09:49:09.700Z,101250.48
2018-01-21T09:50:13.927Z,101255.64
2018-01-21T09:51:18.125Z,101254.36
2018-01-21T09:52:22.340Z,101255.69
2018-01-21T09:53:26.591Z,101257.38
2018-01-21T09:54:30.834Z,101256.16
2018-01-21T09:55:35.843Z,101260.87
2018-01-21T09:56:40.015Z,101260.87
2018-01-21T09:57:44.212Z,101263.45
2018-01-21T09:58:48.416Z,101262.23
2018-01-21T09:59:52.633Z,101266.06
2018-01-21T10:00:57.258Z,101265.70
2018-01-21T10:02:01.465Z,101270.06
2018-01-21T10:03:05.663Z,101267.60
2018-01-21T10:04:09.886Z,101263.81
2018-01-21T10:05:14.166Z,101268.92
2018-01-21T10:06:19.644Z,101273.19
2018-01-21T10:07:23.884Z,101275.34
2018-01-21T10:08:28.064Z,101273.64
2018-01-21T10:09:32.277Z,101273.61
2018-01-21T10:10:36.545Z,101274.37
2018-01-21T10:11:40.801Z,101281.56
2018-01-21T10:12:44.971Z,101287.50
2018-01-21T10:13:49.271Z,101287.06
2018-01-21T10:14:53.528Z,101293.83
2018-01-21T10:15:57.728Z,101287.55
2018-01-21T10:17:02.723Z,101297.27
2018-01-21T10:18:06.925Z,101293.91
2018-01-21T10:19:11.149Z,101299.05
2018-01-21T10:20:15.407Z,101294.02
2018-01-21T10:21:19.630Z,101306.31
2018-01-21T10:22:23.846Z,101302.09
2018-01-21T10:23:28.052Z,101304.23
2018-01-21T10:24:32.274Z,101308.11
2018-01-21T10:25:36.462Z,101308.16
2018-01-21T10:26:40.678Z,101303.61
2018-01-21T10:27:44.977Z,101308.67
2018-01-21T10:28:49.156Z,101307.85
2018-01-21T10:29:53.379Z,101307.09
2018-01-21T10:30:58.407Z,101305.49
2018-01-21T10:32:03.414Z,101309.40
2018-01-21T10:33:08.027Z,101310.23
2018-01-21T10:34:12.211Z,101308.13
2018-01-21T10:35:16.429Z,101312.72
2018-01-21T10:36:20.638Z,101315.25
2018-01-21T10:37:24.917Z,101319.92
2018-01-21T10:38:29.902Z,101312.32
2018-01-21T10:39:34.123Z,101314.08
2018-01-21T10:40:38.330Z,101316.70
2018-01-21T10:41:42.600Z,101314.67
2018-01-21T10:42:46.773Z,101313.45
2018-01-21T10:43:51.014Z,101312.66
2018-01-21T10:44:55.190Z,101315.27
2018-01-21T10:46:00.185Z,101318.16
2018-01-21T10:47:04.367Z,101316.06
2018-01-21T10:48:08.548Z,101319.45
2018-01-21T10:49:12.877Z,101310.99
2018-01-21T10:50:17.102Z,101305.13
2018-01-21T10:51:21.283Z,101304.37
2018-01-21T10:52:26.253Z,101310.72
2018-01-21T10:53:30.453Z,101310.29
2018-01-21T10:54:34.736Z,101305.64
2018-01-21T10:55:39.741Z,101310.78
2018-01-21T10:56:43.977Z,101313.39
2018-01-21T10:57:48.194Z,101312.58
2018-01-21T10:58:52.385Z,101314.71
2018-01-21T10:59:56.609Z,101310.88
2018-01-21T11:01:02.467Z,101316.86
2018-01-21T11:02:06.675Z,101313.08
2018-01-21T11:03:10.889Z,101314.44
2018-01-21T11:04:15.206Z,101314.89
2018-01-21T11:05:19.416Z,101318.73
2018-01-21T11:06:23.635Z,101314.52
2018-01-21T11:07:27.841Z,101313.23
2018-01-21T11:08:32.049Z,101311.09
2018-01-21T11:09:36.339Z,101315.75
2018-01-21T11:10:41.388Z,101314.08
2018-01-21T11:11:45.598Z,101313.25
2018-01-21T11:12:49.826Z,101300.97
2018-01-21T11:13:54.107Z,101303.94
2018-01-21T11:14:59.097Z,101306.50
2018-01-21T11:16:03.267Z,101311.61
2018-01-21T11:17:07.432Z,101314.13
2018-01-21T11:18:11.646Z,101316.68
2018-01-21T11:19:17.366Z,101318.37
2018-01-21T11:20:21.597Z,101319.66
2018-01-21T11:21:25.772Z,101325.20
2018-01-21T11:22:29.930Z,101323.51
2018-01-21T11:23:34.115Z,101322.23
2018-01-21T11:24:38.344Z,101324.34
2018-01-21T11:25:42.558Z,101324.77
2018-01-21T11:26:46.756Z,101326.06
2018-01-21T11:27:50.920Z,101324.80
2018-01-21T11:28:55.178Z,101316.76
2018-01-21T11:29:59.352Z,101317.61
2018-01-21T11:31:03.615Z,101307.83
2018-01-21T11:32:07.826Z,101317.59
2018-01-21T11:33:12.811Z,101315.00
2018-01-21T11:34:17.060Z,101317.97
2018-01-21T11:35:21.236Z,101312.45
2018-01-21T11:36:25.920Z,101315.83
2018-01-21T11:37:30.148Z,101320.91
2018-01-21T11:38:34.333Z,101324.69
2018-01-21T11:39:38.617Z,101325.95
2018-01-21T11:40:42.833Z,101329.74
2018-01-21T11:41:47.137Z,101323.41
2018-01-21T11:42:51.349Z,101333.53
2018-01-21T11:43:56.331Z,101325.91
2018-01-21T11:45:00.636Z,101328.07
2018-01-21T11:46:04.889Z,101331.92
2018-01-21T11:47:10.800Z,101328.08
2018-01-21T11:48:13.335Z,101329.35
2018-01-21T11:49:18.310Z,101327.70
2018-01-21T11:50:22.567Z,101322.59
2018-01-21T11:51:27.561Z,101326.88
2018-01-21T11:52:32.085Z,101331.11
2018-01-21T11:53:36.265Z,101324.75
2018-01-21T11:54:40.457Z,101330.67
2018-01-21T11:55:45.398Z,101333.23
2018-01-21T11:56:49.598Z,101334.52
2018-01-21T11:57:53.817Z,101331.13
2018-01-21T11:58:58.889Z,101326.45
2018-01-21T12:00:03.107Z,101331.11
2018-01-21T12:01:08.055Z,101328.59
2018-01-21T12:02:12.258Z,101331.13
2018-01-21T12:03:16.488Z,101331.13
2018-01-21T12:04:20.690Z,101333.64
2018-01-21T12:05:26.467Z,101330.67
2018-01-21T12:06:30.634Z,101338.31
2018-01-21T12:07:34.858Z,101334.50
2018-01-21T12:08:39.155Z,101334.50
2018-01-21T12:09:43.370Z,101335.79
2018-01-21T12:10:47.535Z,101341.70
2018-01-21T12:11:51.742Z,101334.51
2018-01-21T12:12:55.965Z,101339.97
2018-01-21T12:14:00.204Z,101336.14
2018-01-21T12:15:05.887Z,101334.88